Time;durP1;ratioP1;P1;durP2;ratioP2;P2;SDS_P1;SDS_P2;PMS_P1;PMS_P2;Temp;Humidity;BMP_temperature;BMP_pressure;BME280_temperature;BME280_humidity;BME280_pressure;Samples;Min_cycle;Max_cycle;Signal;HPM_P1;HPM_P2
2022/04/16 00:01:37;;;;;;;16.00;9.65;;;8.10;30.50;;;;;;4984124;28;34080;-74
2022/04/16 00:04:03;;;;;;;15.98;10.02;;;8.00;31.00;;;;;;4965785;28;36391;-74
2022/04/16 00:06:30;;;;;;;14.48;9.05;;;8.00;31.50;;;;;;4966728;28;34425;-74
2022/04/16 00:08:55;;;;;;;14.50;9.18;;;8.00;31.50;;;;;;4966634;28;34443;-74
2022/04/16 00:11:21;;;;;;;15.57;9.85;;;8.00;31.80;;;;;;4965829;28;34131;-74
2022/04/16 00:13:50;;;;;;;19.13;10.30;;;8.00;31.80;;;;;;4950207;28;36006;-75
2022/04/16 00:16:17;;;;;;;16.35;9.98;;;7.90;31.90;;;;;;4983702;28;34280;-74
2022/04/16 00:18:44;;;;;;;15.75;9.27;;;7.90;31.80;;;;;;4966097;28;34164;-75
2022/04/16 00:21:10;;;;;;;13.95;9.25;;;7.90;31.80;;;;;;4966202;28;34053;-75
2022/04/16 00:23:37;;;;;;;14.60;9.05;;;7.80;31.70;;;;;;4966137;28;36199;-74
2022/04/16 00:26:03;;;;;;;16.90;9.05;;;7.90;32.00;;;;;;4962311;28;34199;-75
2022/04/16 00:28:29;;;;;;;15.55;9.20;;;7.80;32.70;;;;;;4950485;28;34272;-75
2022/04/16 00:30:57;;;;;;;13.30;8.48;;;7.80;32.20;;;;;;4950671;28;34148;-75
2022/04/16 00:33:25;;;;;;;13.52;8.43;;;7.80;32.10;;;;;;4949692;28;35967;-75
2022/04/16 00:35:51;;;;;;;13.93;8.73;;;7.80;32.30;;;;;;4966404;28;33993;-75
2022/04/16 00:38:17;;;;;;;14.32;7.85;;;7.70;32.60;;;;;;4967293;28;34125;-74
2022/04/16 00:40:43;;;;;;;14.18;8.15;;;7.70;32.70;;;;;;4950142;28;34132;-74
2022/04/16 00:43:22;;;;;;;13.65;8.23;;;7.70;32.70;;;;;;4949409;28;34802;-73
2022/04/16 00:45:48;;;;;;;13.38;7.78;;;7.70;35.70;;;;;;4949622;28;34025;-75
2022/04/16 00:48:14;;;;;;;13.77;7.93;;;7.70;32.80;;;;;;4965940;28;34443;-74
2022/04/16 00:50:41;;;;;;;12.30;7.50;;;7.60;33.10;;;;;;4950255;28;34686;-74
2022/04/16 00:53:07;;;;;;;11.85;7.78;;;7.60;33.10;;;;;;4965184;28;35660;-74
2022/04/16 00:55:37;;;;;;;13.60;8.13;;;7.60;33.00;;;;;;4965835;28;34123;-74
2022/04/16 00:58:03;;;;;;;12.73;7.30;;;7.60;33.50;;;;;;4949158;28;34122;-74
2022/04/16 01:00:29;;;;;;;10.88;7.38;;;7.60;33.00;;;;;;4949784;28;34131;-74
2022/04/16 01:02:56;;;;;;;9.98;6.82;;;7.60;33.00;;;;;;4949586;28;35873;-75
2022/04/16 01:05:22;;;;;;;10.68;7.15;;;7.60;33.50;;;;;;4933901;28;34234;-74
2022/04/16 01:07:54;;;;;;;11.90;7.25;;;7.60;33.40;;;;;;4949527;28;34119;-74
2022/04/16 01:10:21;;;;;;;12.38;7.57;;;7.50;33.90;;;;;;4949787;28;34175;-74
2022/04/16 01:12:48;;;;;;;11.07;6.75;;;7.50;33.60;;;;;;4948932;28;36554;-74
2022/04/16 01:15:14;;;;;;;11.60;7.15;;;7.50;33.50;;;;;;4949297;28;34223;-74
2022/04/16 01:17:40;;;;;;;9.07;5.88;;;7.50;33.40;;;;;;4950138;28;34139;-74
2022/04/16 01:20:09;;;;;;;11.38;6.88;;;7.40;33.50;;;;;;4966563;28;34244;-74
2022/04/16 01:22:35;;;;;;;15.82;6.10;;;7.40;33.50;;;;;;4934434;28;34587;-75
2022/04/16 01:25:02;;;;;;;9.25;6.25;;;7.30;33.70;;;;;;4966551;28;34061;-74
2022/04/16 01:27:28;;;;;;;9.30;5.60;;;7.30;33.80;;;;;;4966488;28;34329;-74
2022/04/16 01:29:54;;;;;;;9.35;5.78;;;7.20;33.50;;;;;;4966553;28;34143;-74
2022/04/16 01:32:20;;;;;;;8.88;5.63;;;7.20;33.60;;;;;;4949169;28;36468;-74
2022/04/16 01:34:46;;;;;;;10.43;6.00;;;7.20;33.80;;;;;;4949468;28;34270;-75
2022/04/16 01:37:12;;;;;;;11.20;6.00;;;7.10;33.90;;;;;;4963700;28;34408;-74
2022/04/16 01:39:38;;;;;;;11.52;5.35;;;7.10;34.00;;;;;;4952433;28;34069;-75
2022/04/16 01:42:04;;;;;;;9.10;5.60;;;7.00;34.10;;;;;;4968532;28;35732;-75
2022/04/16 01:44:30;;;;;;;8.60;5.63;;;6.90;34.10;;;;;;4952600;28;34504;-74
2022/04/16 01:46:57;;;;;;;8.32;5.88;;;6.90;34.30;;;;;;4968740;28;34320;-74
2022/04/16 01:49:23;;;;;;;8.57;5.78;;;6.90;34.40;;;;;;4968453;28;34127;-74
2022/04/16 01:51:49;;;;;;;7.15;5.18;;;6.90;34.30;;;;;;4968056;28;35604;-74
2022/04/16 01:54:15;;;;;;;7.18;4.75;;;6.80;34.40;;;;;;4968553;28;34278;-74
2022/04/16 01:56:41;;;;;;;8.32;5.07;;;6.80;34.70;;;;;;4968243;28;34219;-74
2022/04/16 01:59:08;;;;;;;7.88;5.30;;;6.80;34.70;;;;;;4968037;28;34122;-75
2022/04/16 02:01:35;;;;;;;8.88;5.28;;;6.80;34.80;;;;;;4985241;28;34578;-75
2022/04/16 02:04:01;;;;;;;8.77;5.30;;;6.70;35.00;;;;;;4967915;28;34031;-74
2022/04/16 02:06:27;;;;;;;8.68;4.80;;;6.70;34.90;;;;;;4952163;28;34338;-74
2022/04/16 02:08:53;;;;;;;8.13;4.82;;;6.60;35.00;;;;;;4968127;28;34227;-74
2022/04/16 02:11:18;;;;;;;6.85;4.35;;;6.60;34.90;;;;;;4950930;28;36039;-74
2022/04/16 02:13:44;;;;;;;6.72;4.30;;;6.50;35.10;;;;;;4952070;28;34096;-74
2022/04/16 02:16:10;;;;;;;8.00;4.93;;;6.60;35.30;;;;;;4968145;28;34386;-74
2022/04/16 02:18:36;;;;;;;6.47;4.80;;;6.50;35.30;;;;;;4968338;28;34131;-74
2022/04/16 02:21:02;;;;;;;7.22;4.88;;;6.50;35.20;;;;;;4951090;28;35654;-75
2022/04/16 02:23:28;;;;;;;6.93;4.72;;;6.50;35.30;;;;;;4985189;28;34299;-75
2022/04/16 02:25:54;;;;;;;6.07;4.43;;;6.40;35.10;;;;;;4951530;28;34145;-75
2022/04/16 02:28:21;;;;;;;5.38;3.55;;;6.40;35.10;;;;;;4968013;28;34064;-75
2022/04/16 02:30:49;;;;;;;7.45;4.70;;;6.40;35.20;;;;;;4951820;28;35536;-74
2022/04/16 02:33:15;;;;;;;6.40;4.00;;;6.30;35.20;;;;;;4967670;28;34262;-75
2022/04/16 02:35:41;;;;;;;7.72;4.65;;;6.30;35.30;;;;;;4967794;28;34247;-75
2022/04/16 02:38:07;;;;;;;5.35;4.10;;;6.30;35.40;;;;;;4967723;28;34119;-75
2022/04/16 02:40:33;;;;;;;5.88;3.47;;;6.20;35.40;;;;;;4951282;28;36605;-75
2022/04/16 02:43:00;;;;;;;4.97;3.75;;;6.20;35.50;;;;;;4967440;28;34132;-75
2022/04/16 02:48:07;;;;;;;6.32;3.60;;;6.10;35.50;;;;;;4968538;28;34071;-75
2022/04/16 02:50:33;;;;;;;5.28;3.83;;;6.10;35.70;;;;;;4967015;28;36362;-75
2022/04/16 02:53:00;;;;;;;5.30;3.65;;;6.10;36.30;;;;;;4951189;28;34108;-75
2022/04/16 02:55:26;;;;;;;4.85;3.55;;;6.00;35.70;;;;;;4984905;28;33995;-75
2022/04/16 02:57:52;;;;;;;7.00;3.35;;;6.00;35.90;;;;;;4968057;28;34080;-75
2022/04/16 03:00:20;;;;;;;4.03;3.22;;;6.00;35.90;;;;;;4966746;28;35534;-75
2022/04/16 03:02:47;;;;;;;4.57;3.20;;;5.90;35.90;;;;;;4951327;28;34352;-75
2022/04/16 03:05:13;;;;;;;4.15;2.92;;;5.90;35.80;;;;;;4967004;28;34134;-74
2022/04/16 03:07:39;;;;;;;4.57;3.28;;;5.90;35.80;;;;;;4984496;28;33982;-74
2022/04/16 03:10:08;;;;;;;4.07;3.20;;;5.90;35.70;;;;;;4966710;28;35500;-74
2022/04/16 03:12:51;;;;;;;3.80;3.15;;;5.90;35.80;;;;;;4984361;28;34422;-75
2022/04/16 03:18:00;;;;;;;3.53;2.53;;;5.80;35.90;;;;;;4983843;28;34045;-75
2022/04/16 03:20:27;;;;;;;4.88;2.97;;;5.80;35.90;;;;;;4984420;28;34384;-74
2022/04/16 03:22:55;;;;;;;5.30;3.08;;;5.70;36.30;;;;;;4966907;28;34389;-75
2022/04/16 03:25:21;;;;;;;6.47;3.08;;;5.70;36.70;;;;;;4984459;28;34090;-75
2022/04/16 03:27:47;;;;;;;4.78;3.00;;;5.70;36.80;;;;;;4967600;28;34196;-75
2022/04/16 03:30:13;;;;;;;4.95;2.92;;;5.70;36.70;;;;;;4966383;28;35970;-75
2022/04/16 03:32:39;;;;;;;4.47;3.28;;;5.70;36.50;;;;;;4950806;28;34318;-74
2022/04/16 03:35:07;;;;;;;4.03;2.80;;;5.70;36.70;;;;;;4966868;28;34227;-75
2022/04/16 03:37:34;;;;;;;3.30;2.85;;;5.60;36.50;;;;;;4950950;28;34122;-75
2022/04/16 03:40:00;;;;;;;4.13;3.10;;;5.60;36.50;;;;;;4950465;28;36122;-75
2022/04/16 03:42:26;;;;;;;3.63;2.70;;;5.60;36.50;;;;;;4967097;28;34255;-75
2022/04/16 03:44:52;;;;;;;4.28;3.15;;;5.60;36.70;;;;;;4966854;28;34147;-75
2022/04/16 03:47:18;;;;;;;4.65;2.80;;;5.50;36.80;;;;;;4966604;28;34045;-75
2022/04/16 03:49:44;;;;;;;4.95;3.05;;;5.50;36.90;;;;;;4966079;28;36228;-75
2022/04/16 03:52:10;;;;;;;3.92;3.10;;;5.50;36.90;;;;;;4950724;28;34548;-74
2022/04/16 03:59:59;;;;;;;3.10;2.65;;;5.50;36.70;;;;;;4984609;28;34776;-75
2022/04/16 04:02:26;;;;;;;3.38;2.50;;;5.50;36.80;;;;;;4970240;28;34209;-75
2022/04/16 04:04:52;;;;;;;4.10;2.92;;;5.40;36.80;;;;;;4969951;28;34146;-75
2022/04/16 04:07:18;;;;;;;3.33;2.83;;;5.40;36.90;;;;;;4969604;28;34333;-75
2022/04/16 04:09:44;;;;;;;2.95;2.60;;;5.40;37.10;;;;;;4969081;28;35889;-75
2022/04/16 04:12:11;;;;;;;3.78;2.65;;;5.40;37.20;;;;;;4969789;28;34211;-75
2022/04/16 04:14:39;;;;;;;5.75;2.88;;;5.30;37.20;;;;;;4987236;28;34372;-75
2022/04/16 04:17:07;;;;;;;4.10;2.90;;;5.30;37.30;;;;;;4969797;28;34133;-75
2022/04/16 04:19:35;;;;;;;3.78;2.78;;;5.30;37.40;;;;;;4969483;28;36335;-75
2022/04/16 04:22:03;;;;;;;3.85;2.53;;;5.30;37.50;;;;;;4969626;28;34123;-75
2022/04/16 04:24:29;;;;;;;4.65;2.90;;;5.30;37.40;;;;;;4969948;28;34221;-74
2022/04/16 04:26:57;;;;;;;6.57;3.10;;;5.20;37.10;;;;;;4969685;28;34315;-75
2022/04/16 04:29:23;;;;;;;2.97;2.50;;;5.20;37.30;;;;;;4969233;28;36494;-75
2022/04/16 04:31:49;;;;;;;6.65;2.53;;;5.10;37.10;;;;;;4969400;28;34186;-75
2022/04/16 04:34:15;;;;;;;3.78;2.63;;;5.10;37.20;;;;;;4986836;28;33994;-75
2022/04/16 04:36:41;;;;;;;4.00;2.70;;;5.10;37.20;;;;;;4970089;28;34408;-75
2022/04/16 04:39:07;;;;;;;3.80;2.85;;;5.10;37.40;;;;;;4969524;28;34309;-74
2022/04/16 04:41:33;;;;;;;6.15;2.90;;;5.10;37.50;;;;;;4969415;28;34412;-74
2022/04/16 04:43:59;;;;;;;2.60;2.25;;;5.00;37.40;;;;;;4969255;28;34422;-75
2022/04/16 04:46:25;;;;;;;4.00;2.70;;;5.00;37.40;;;;;;4969321;28;34490;-75
2022/04/16 04:48:51;;;;;;;3.33;2.22;;;5.00;37.30;;;;;;4953190;28;35567;-75
2022/04/16 04:51:16;;;;;;;3.17;2.40;;;5.00;37.60;;;;;;4969140;28;34260;-74
2022/04/16 04:53:43;;;;;;;3.70;2.78;;;5.00;37.40;;;;;;4986752;28;34236;-74
2022/04/16 04:56:09;;;;;;;5.82;2.63;;;4.90;37.50;;;;;;4986433;28;34078;-75
2022/04/16 04:58:35;;;;;;;2.80;2.50;;;5.00;37.50;;;;;;4952919;28;36929;-74
2022/04/16 05:01:00;;;;;;;2.42;2.20;;;5.00;37.30;;;;;;4953126;28;34023;-75
2022/04/16 05:03:26;;;;;;;4.07;2.60;;;5.00;37.40;;;;;;4969300;28;34159;-75
2022/04/16 05:05:53;;;;;;;5.03;3.08;;;5.00;37.60;;;;;;4969212;28;34504;-75
2022/04/16 05:08:19;;;;;;;6.03;2.47;;;5.00;37.40;;;;;;4968742;28;34450;-74
2022/04/16 05:10:45;;;;;;;2.85;2.47;;;5.10;37.40;;;;;;4952034;28;34191;-75
2022/04/16 05:13:11;;;;;;;3.08;2.75;;;5.00;37.50;;;;;;4968681;28;34290;-75
2022/04/16 05:15:37;;;;;;;3.17;2.33;;;5.10;37.60;;;;;;4952954;28;34173;-75
2022/04/16 05:18:03;;;;;;;3.53;2.58;;;5.10;37.50;;;;;;4968525;28;36537;-75
2022/04/16 05:20:28;;;;;;;5.00;2.25;;;5.10;37.40;;;;;;4968619;28;34070;-75
2022/04/16 05:22:54;;;;;;;3.55;2.50;;;5.20;37.50;;;;;;4952514;28;34256;-75
2022/04/16 05:25:20;;;;;;;3.55;2.45;;;5.20;37.30;;;;;;4968947;28;34555;-75
2022/04/16 05:27:46;;;;;;;3.28;2.28;;;5.20;37.20;;;;;;4968646;28;36430;-75
2022/04/16 05:30:14;;;;;;;2.88;2.55;;;5.20;37.30;;;;;;4952483;28;34551;-75
2022/04/16 05:32:42;;;;;;;3.00;2.53;;;5.30;37.40;;;;;;4968853;28;34207;-75
2022/04/16 05:35:09;;;;;;;3.92;2.85;;;5.30;37.40;;;;;;4968496;28;34555;-75
2022/04/16 05:37:36;;;;;;;2.75;2.20;;;5.30;37.50;;;;;;4952427;28;36766;-75
2022/04/16 05:40:05;;;;;;;3.10;2.60;;;5.40;37.80;;;;;;4968288;28;34168;-75
2022/04/16 05:42:31;;;;;;;4.20;2.47;;;5.40;37.60;;;;;;4968427;28;34318;-75
2022/04/16 05:45:01;;;;;;;4.00;2.58;;;5.50;37.50;;;;;;4952672;28;34069;-75
2022/04/16 05:47:27;;;;;;;3.70;2.88;;;5.60;38.00;;;;;;4985709;28;35349;-75
2022/04/16 05:49:54;;;;;;;3.58;2.60;;;5.60;37.40;;;;;;4967962;28;34490;-75
2022/04/16 05:52:22;;;;;;;3.83;2.83;;;5.70;37.50;;;;;;4968466;28;34217;-76
2022/04/16 05:54:49;;;;;;;4.18;2.75;;;5.80;37.30;;;;;;4985899;28;34060;-75
2022/04/16 05:57:17;;;;;;;3.72;2.85;;;5.90;37.50;;;;;;4967813;28;35632;-75
2022/04/16 05:59:43;;;;;;;4.25;2.97;;;6.20;37.40;;;;;;4975649;28;35247;-75
2022/04/16 06:02:10;;;;;;;4.57;3.15;;;6.60;36.90;;;;;;4968028;28;34210;-75
2022/04/16 06:04:36;;;;;;;7.47;3.40;;;7.10;36.40;;;;;;4968420;28;34333;-75
2022/04/16 06:07:02;;;;;;;5.30;3.38;;;7.80;35.30;;;;;;4985481;28;34342;-75
2022/04/16 06:09:28;;;;;;;4.93;3.17;;;8.60;33.90;;;;;;4968763;28;34182;-75
2022/04/16 06:12:03;;;;;;;6.30;3.53;;;9.50;32.40;;;;;;5004516;28;34118;-75
2022/04/16 06:14:30;;;;;;;4.72;3.33;;;10.50;31.40;;;;;;4971355;28;34077;-75
2022/04/16 06:16:57;;;;;;;3.53;2.88;;;11.30;28.80;;;;;;4987147;28;36013;-75
2022/04/16 06:19:23;;;;;;;11.07;3.45;;;12.10;27.50;;;;;;4965099;28;34143;-75
2022/04/16 06:21:50;;;;;;;10.45;3.45;;;13.00;26.10;;;;;;4985105;28;34233;-75
2022/04/16 06:24:16;;;;;;;3.55;3.08;;;13.70;24.90;;;;;;4968039;28;34248;-75
2022/04/16 06:26:42;;;;;;;4.70;3.30;;;14.30;23.70;;;;;;4984629;28;35835;-75
2022/04/16 06:29:08;;;;;;;4.13;3.22;;;14.90;23.00;;;;;;4965572;28;34178;-75
2022/04/16 06:31:34;;;;;;;7.15;4.00;;;15.50;22.20;;;;;;5002202;28;34200;-75
2022/04/16 06:34:00;;;;;;;4.63;3.85;;;16.00;21.20;;;;;;4988022;28;34186;-75
2022/04/16 06:36:26;;;;;;;4.53;3.72;;;16.50;20.40;;;;;;4971099;28;35650;-75
2022/04/16 06:38:52;;;;;;;5.38;3.55;;;17.10;20.00;;;;;;4987247;28;34011;-76
2022/04/16 06:41:18;;;;;;;4.03;3.50;;;17.60;19.60;;;;;;4978855;28;34028;-76
2022/04/16 06:43:44;;;;;;;4.55;3.78;;;18.00;19.10;;;;;;4978684;28;34252;-75
2022/04/16 06:46:11;;;;;;;4.45;3.40;;;18.50;18.70;;;;;;4947652;28;35685;-75
2022/04/16 06:48:37;;;;;;;4.50;4.03;;;18.90;18.10;;;;;;4983411;28;34283;-76
2022/04/16 06:51:03;;;;;;;5.32;4.22;;;19.30;17.60;;;;;;4952659;28;34206;-75
2022/04/16 06:53:29;;;;;;;5.55;3.78;;;19.60;17.30;;;;;;4966601;28;34269;-75
2022/04/16 06:55:55;;;;;;;5.65;4.10;;;20.00;16.90;;;;;;4967502;28;36599;-77
2022/04/16 06:58:21;;;;;;;6.10;4.40;;;20.10;16.60;;;;;;4967401;28;34123;-75
2022/04/16 07:00:47;;;;;;;6.13;4.25;;;20.40;16.30;;;;;;4984554;28;34122;-76
2022/04/16 07:03:14;;;;;;;6.10;4.55;;;20.50;16.20;;;;;;4967347;28;34097;-76
2022/04/16 07:05:39;;;;;;;5.38;3.83;;;20.70;16.00;;;;;;4950815;28;36426;-76
2022/04/16 07:08:06;;;;;;;5.47;4.05;;;20.70;15.70;;;;;;4950099;28;34243;-76
2022/04/16 07:10:32;;;;;;;5.50;4.47;;;20.50;15.70;;;;;;4966171;28;34077;-76
2022/04/16 07:12:57;;;;;;;5.00;3.97;;;20.50;15.80;;;;;;4966977;28;34147;-75
2022/04/16 07:15:23;;;;;;;5.63;4.18;;;20.30;15.80;;;;;;4961358;28;34768;-75
2022/04/16 07:17:49;;;;;;;5.75;4.25;;;20.20;15.80;;;;;;4966905;28;34059;-75
2022/04/16 07:20:15;;;;;;;6.95;4.80;;;19.80;16.10;;;;;;4966802;28;34131;-77
2022/04/16 07:22:41;;;;;;;5.75;4.38;;;19.30;16.50;;;;;;4951613;28;34313;-77
2022/04/16 07:25:07;;;;;;;6.75;4.50;;;18.90;16.80;;;;;;4983946;28;34725;-75
2022/04/16 07:27:33;;;;;;;8.25;4.95;;;18.50;17.10;;;;;;4954307;28;34082;-76
2022/04/16 07:30:00;;;;;;;7.80;4.63;;;18.10;16.90;;;;;;4953120;28;34457;-75
2022/04/16 07:32:28;;;;;;;6.88;4.82;;;17.70;17.70;;;;;;4970138;28;34759;-75
2022/04/16 07:34:54;;;;;;;6.90;4.78;;;17.50;18.00;;;;;;4982247;28;36659;-76
2022/04/16 07:37:20;;;;;;;6.32;5.03;;;17.40;18.40;;;;;;4982216;28;34206;-74
2022/04/16 07:39:46;;;;;;;8.20;4.85;;;17.20;18.70;;;;;;4960624;28;34235;-76
2022/04/16 07:42:11;;;;;;;7.50;4.53;;;17.00;18.40;;;;;;4961655;28;34306;-75
2022/04/16 07:44:37;;;;;;;7.50;4.75;;;17.00;19.00;;;;;;4965865;28;36281;-75
2022/04/16 07:47:04;;;;;;;7.22;4.72;;;16.90;19.00;;;;;;4950112;28;34179;-75
2022/04/16 07:49:29;;;;;;;7.10;4.72;;;16.90;19.00;;;;;;4950440;28;34191;-75
2022/04/16 07:51:55;;;;;;;5.85;4.28;;;16.80;19.00;;;;;;4947001;28;34211;-74
2022/04/16 07:54:21;;;;;;;5.93;4.40;;;16.80;19.10;;;;;;4963215;28;36642;-75
2022/04/16 07:56:47;;;;;;;6.57;4.50;;;16.80;18.40;;;;;;4977544;28;34316;-74
2022/04/16 07:59:13;;;;;;;7.47;4.55;;;16.80;19.00;;;;;;4962789;28;34119;-75
2022/04/16 08:01:39;;;;;;;8.10;4.82;;;16.60;18.90;;;;;;4982419;28;34336;-75
2022/04/16 08:04:05;;;;;;;6.85;4.55;;;16.60;18.90;;;;;;4979923;28;35654;-75
2022/04/16 08:06:31;;;;;;;6.25;4.45;;;16.70;19.10;;;;;;4957318;28;34320;-75
2022/04/16 08:09:01;;;;;;;7.45;3.88;;;16.80;18.90;;;;;;4962531;28;34258;-76
2022/04/16 08:11:30;;;;;;;7.15;3.85;;;16.80;17.70;;;;;;4982913;28;35681;-74
2022/04/16 08:13:56;;;;;;;5.68;4.18;;;17.00;18.40;;;;;;4965934;28;35300;-74
2022/04/16 08:16:22;;;;;;;5.00;3.65;;;17.10;18.50;;;;;;4984896;28;34253;-75
2022/04/16 08:18:48;;;;;;;6.55;3.58;;;17.00;18.10;;;;;;5003312;28;34158;-76
2022/04/16 08:21:14;;;;;;;6.45;4.15;;;17.10;17.50;;;;;;4985125;28;34185;-75
2022/04/16 08:23:54;;;;;;;6.10;3.67;;;17.00;18.10;;;;;;4973897;28;35696;-75
2022/04/16 08:26:22;;;;;;;5.57;3.80;;;16.90;17.90;;;;;;4963384;28;34085;-75
2022/04/16 08:28:48;;;;;;;5.38;3.63;;;16.90;17.80;;;;;;4951918;28;34607;-75
2022/04/16 08:31:14;;;;;;;5.10;3.15;;;16.90;17.90;;;;;;4992082;28;34133;-75
2022/04/16 08:33:40;;;;;;;6.63;2.90;;;17.10;18.30;;;;;;4958541;28;35685;-76
2022/04/16 08:36:06;;;;;;;3.83;3.03;;;17.20;15.90;;;;;;4995697;28;34392;-75
2022/04/16 08:38:32;;;;;;;6.00;3.38;;;17.40;17.70;;;;;;4950048;28;34211;-74
2022/04/16 08:41:00;;;;;;;5.18;3.17;;;17.70;17.40;;;;;;4965908;28;34087;-79
2022/04/16 08:43:26;;;;;;;4.53;2.95;;;17.70;16.50;;;;;;4965474;28;35717;-76
2022/04/16 08:45:55;;;;;;;4.05;3.15;;;17.80;15.40;;;;;;4981743;28;34258;-77
2022/04/16 08:48:21;;;;;;;5.43;3.15;;;17.90;16.50;;;;;;4987762;28;34466;-78
2022/04/16 08:50:48;;;;;;;4.57;3.35;;;18.00;16.70;;;;;;4969692;28;34654;-76
2022/04/16 08:53:15;;;;;;;3.80;2.83;;;17.90;16.30;;;;;;4952533;28;35659;-74
2022/04/16 08:55:41;;;;;;;4.47;3.28;;;17.80;15.30;;;;;;4969886;28;34092;-75
2022/04/16 08:58:07;;;;;;;3.83;3.00;;;17.90;16.70;;;;;;4968719;28;34115;-75
2022/04/16 09:00:33;;;;;;;4.13;2.80;;;17.80;16.50;;;;;;4969168;28;35141;-75
2022/04/16 09:03:03;;;;;;;3.85;2.80;;;17.70;16.20;;;;;;4982321;28;36567;-76
2022/04/16 09:05:29;;;;;;;3.78;2.92;;;17.70;15.80;;;;;;4985745;28;34301;-77
2022/04/16 09:07:57;;;;;;;2.92;2.63;;;18.10;16.00;;;;;;4985720;28;34411;-76
2022/04/16 09:10:27;;;;;;;3.60;2.60;;;18.60;15.50;;;;;;4984300;28;34367;-75
2022/04/16 09:12:54;;;;;;;2.75;1.98;;;19.00;13.60;;;;;;4952465;28;36499;-76
2022/04/16 09:15:23;;;;;;;5.20;2.00;;;19.30;14.50;;;;;;4973700;28;33707;-78
2022/04/16 09:18:06;;;;;;;2.03;1.73;;;19.50;14.30;;;;;;4971118;28;34385;-76
2022/04/16 09:20:38;;;;;;;3.15;1.95;;;19.50;10.30;;;;;;4965066;28;34080;-77
2022/04/16 09:23:21;;;;;;;2.38;1.80;;;19.60;12.60;;;;;;4967346;28;35669;-77
2022/04/16 09:25:48;;;;;;;2.13;1.80;;;19.90;9.60;;;;;;4968987;28;34470;-76
2022/04/16 09:28:17;;;;;;;2.22;1.70;;;20.10;12.70;;;;;;4962763;28;34158;-78
2022/04/16 09:30:55;;;;;;;2.03;1.60;;;20.40;11.70;;;;;;4952900;28;33993;-75
2022/04/16 09:33:22;;;;;;;1.80;1.55;;;20.70;10.00;;;;;;4952923;28;35604;-76
2022/04/16 09:35:53;;;;;;;1.77;1.65;;;20.70;10.90;;;;;;4968612;28;34147;-76
2022/04/16 09:38:19;;;;;;;2.47;2.05;;;20.80;9.10;;;;;;4987741;28;34169;-76
2022/04/16 09:40:47;;;;;;;2.30;1.65;;;20.80;11.90;;;;;;4971484;28;34579;-75
2022/04/16 09:43:13;;;;;;;2.47;1.83;;;20.90;10.30;;;;;;4968092;28;34493;-77
2022/04/16 09:45:40;;;;;;;2.10;1.40;;;21.00;11.30;;;;;;4984617;28;34201;-76
2022/04/16 09:48:11;;;;;;;2.53;2.03;;;20.70;9.60;;;;;;4968853;28;34234;-76
2022/04/16 09:50:38;;;;;;;1.88;1.40;;;20.90;8.80;;;;;;4986157;28;34059;-76
2022/04/16 09:53:06;;;;;;;1.50;1.30;;;21.00;11.00;;;;;;4975834;28;34409;-77
2022/04/16 09:55:32;;;;;;;2.95;1.80;;;21.20;10.60;;;;;;4981983;28;34244;-74
2022/04/16 09:58:01;;;;;;;1.85;1.60;;;21.20;10.50;;;;;;4968248;28;34293;-78
2022/04/16 10:00:28;;;;;;;2.60;1.83;;;21.00;9.80;;;;;;4960599;28;34253;-77
2022/04/16 10:02:55;;;;;;;1.75;1.40;;;20.90;9.50;;;;;;4949595;28;35638;-74
2022/04/16 10:05:22;;;;;;;2.85;1.48;;;20.90;7.90;;;;;;4985889;28;34256;-79
2022/04/16 10:07:49;;;;;;;1.85;1.60;;;20.90;8.10;;;;;;4959243;28;34111;-76
2022/04/16 10:10:19;;;;;;;2.00;1.42;;;20.80;9.90;;;;;;4984453;28;34489;-76
2022/04/16 10:15:53;;;;;;;2.20;1.70;;;20.70;8.20;;;;;;4969366;28;34227;-75
2022/04/16 10:18:19;;;;;;;1.55;1.45;;;20.80;6.40;;;;;;4977376;28;34590;-76
2022/04/16 10:21:00;;;;;;;2.28;1.80;;;20.90;9.80;;;;;;4980038;28;34495;-75
2022/04/16 10:23:31;;;;;;;2.35;1.55;;;20.60;5.30;;;;;;4951670;28;35881;-75
2022/04/16 10:26:05;;;;;;;1.92;1.70;;;20.50;7.70;;;;;;4951459;28;34120;-75
2022/04/16 10:28:38;;;;;;;2.20;1.80;;;20.50;7.80;;;;;;4967784;28;34301;-75
2022/04/16 10:31:05;;;;;;;2.40;1.75;;;20.40;7.30;;;;;;4987005;28;34634;-76
2022/04/16 10:33:32;;;;;;;1.77;1.50;;;20.30;9.50;;;;;;4987245;28;35766;-78
2022/04/16 10:36:00;;;;;;;2.22;1.80;;;20.30;9.20;;;;;;4980994;28;34736;-76
2022/04/16 10:38:37;;;;;;;2.22;1.65;;;20.30;8.70;;;;;;4977252;28;34084;-77
2022/04/16 10:41:11;;;;;;;1.80;1.65;;;20.40;4.60;;;;;;4967584;28;34376;-77
2022/04/16 10:43:37;;;;;;;2.25;1.90;;;20.50;6.70;;;;;;4951720;28;36335;-76
2022/04/16 10:46:06;;;;;;;3.08;1.90;;;20.70;9.20;;;;;;4967525;28;34083;-75
2022/04/16 10:48:34;;;;;;;2.58;1.92;;;20.80;8.20;;;;;;4951940;28;34184;-75
2022/04/16 10:51:00;;;;;;;2.85;1.70;;;21.00;7.80;;;;;;4967710;28;34172;-75
2022/04/16 10:53:29;;;;;;;2.90;1.90;;;21.10;8.50;;;;;;4960518;28;35548;-73
2022/04/16 10:55:58;;;;;;;3.42;2.15;;;21.10;7.40;;;;;;4951539;28;34375;-76
2022/04/16 10:58:28;;;;;;;4.15;2.30;;;21.00;8.10;;;;;;4966998;28;34268;-78
2022/04/16 11:01:06;;;;;;;3.53;2.90;;;20.70;7.40;;;;;;4967430;28;34040;-77
2022/04/16 11:03:34;;;;;;;2.53;1.88;;;20.60;7.20;;;;;;4951323;28;35655;-74
2022/04/16 11:06:07;;;;;;;2.67;1.98;;;20.30;8.00;;;;;;4983132;28;34249;-77
2022/04/16 11:08:34;;;;;;;2.35;2.00;;;20.20;6.80;;;;;;4950727;28;34800;-76
2022/04/16 11:11:04;;;;;;;3.47;2.35;;;20.00;8.50;;;;;;4966454;28;34219;-73
2022/04/16 11:13:32;;;;;;;3.58;2.40;;;20.00;8.60;;;;;;4985711;28;34250;-75
2022/04/16 11:15:59;;;;;;;2.72;2.20;;;20.10;7.60;;;;;;4968031;28;34210;-77
2022/04/16 11:18:26;;;;;;;3.45;2.20;;;20.00;8.80;;;;;;4967024;28;34288;-76
2022/04/16 11:20:55;;;;;;;3.42;2.25;;;20.00;9.20;;;;;;4967828;28;34250;-77
2022/04/16 11:23:26;;;;;;;3.63;2.28;;;20.00;8.50;;;;;;4950261;28;36660;-77
2022/04/16 11:36:39;;;;;;;3.30;2.40;;;20.70;8.90;;;;;;4949774;28;34257;-76
2022/04/16 11:39:05;;;;;;;4.07;2.25;;;20.60;9.10;;;;;;4976286;28;34503;-77
2022/04/16 11:41:32;;;;;;;4.45;2.10;;;20.50;9.10;;;;;;4963216;28;34336;-76
2022/04/16 11:43:58;;;;;;;2.95;2.42;;;20.60;9.00;;;;;;4969993;28;35683;-78
2022/04/16 11:46:24;;;;;;;2.40;2.05;;;20.40;8.80;;;;;;4971317;28;34479;-79
2022/04/16 11:48:51;;;;;;;2.92;2.30;;;20.00;9.00;;;;;;4951201;28;34208;-76
2022/04/16 11:51:19;;;;;;;2.88;2.30;;;20.00;8.90;;;;;;4968655;28;34182;-77
2022/04/16 11:53:48;;;;;;;2.78;2.05;;;20.00;8.20;;;;;;4983224;28;35956;-79
2022/04/16 11:56:20;;;;;;;2.28;2.05;;;20.00;8.50;;;;;;4984619;28;34311;-76
2022/04/16 11:58:50;;;;;;;3.15;1.90;;;20.00;6.00;;;;;;4969702;28;34041;-74
2022/04/16 12:01:21;;;;;;;2.60;2.10;;;20.00;8.10;;;;;;4957900;28;34692;-74
2022/04/16 12:03:48;;;;;;;11.52;3.28;;;20.00;6.60;;;;;;4984778;28;35825;-73
2022/04/16 12:06:15;;;;;;;3.72;2.28;;;20.10;8.60;;;;;;4982122;28;34467;-75
2022/04/16 12:08:42;;;;;;;2.00;1.80;;;20.20;8.60;;;;;;4958430;28;34143;-74
2022/04/16 12:11:09;;;;;;;2.38;1.80;;;20.30;8.20;;;;;;4978791;28;34220;-77
2022/04/16 12:13:37;;;;;;;2.22;1.83;;;20.40;8.60;;;;;;4965983;28;36086;-77
2022/04/16 12:16:07;;;;;;;2.70;1.73;;;20.60;7.90;;;;;;4986830;28;34016;-77
2022/04/16 12:18:36;;;;;;;2.05;1.83;;;20.60;7.30;;;;;;4957282;28;34305;-75
2022/04/16 12:21:08;;;;;;;2.58;2.10;;;20.60;7.50;;;;;;4966984;28;34566;-75
2022/04/16 12:23:37;;;;;;;2.10;1.80;;;20.60;5.90;;;;;;4955886;28;35815;-75
2022/04/16 12:26:06;;;;;;;2.55;1.52;;;20.50;7.60;;;;;;4978502;28;33991;-76
2022/04/16 12:28:35;;;;;;;2.03;1.70;;;20.50;7.50;;;;;;4985479;28;34222;-78
2022/04/16 12:31:00;;;;;;;1.63;1.52;;;20.50;7.70;;;;;;4969460;28;34080;-76
2022/04/16 12:33:26;;;;;;;5.43;1.33;;;20.40;7.90;;;;;;4985236;28;36666;-76
2022/04/16 12:35:56;;;;;;;2.63;1.40;;;20.40;8.00;;;;;;4987160;28;34159;-75
2022/04/16 12:38:24;;;;;;;2.75;1.63;;;20.40;7.80;;;;;;4968480;28;34198;-73
2022/04/16 12:40:49;;;;;;;7.05;2.55;;;20.50;7.50;;;;;;4987029;28;34094;-72
2022/04/16 12:43:16;;;;;;;2.25;1.70;;;20.30;7.40;;;;;;4984841;28;35465;-75
2022/04/16 12:45:42;;;;;;;2.47;1.40;;;20.20;7.00;;;;;;4953399;28;34215;-72
2022/04/16 12:48:09;;;;;;;3.20;1.52;;;20.10;6.90;;;;;;4985354;28;34022;-75
2022/04/16 12:50:35;;;;;;;3.13;1.40;;;20.10;7.70;;;;;;4989633;28;34221;-77
2022/04/16 12:53:04;;;;;;;1.65;1.30;;;20.10;7.30;;;;;;4950353;28;36081;-77
2022/04/16 12:55:30;;;;;;;1.30;1.20;;;20.00;6.90;;;;;;4966279;28;34296;-76
2022/04/16 12:57:56;;;;;;;1.33;1.23;;;20.00;7.10;;;;;;4950590;28;34173;-77
2022/04/16 13:00:22;;;;;;;1.35;1.25;;;20.10;7.30;;;;;;4952497;28;36089;-78
2022/04/16 13:02:48;;;;;;;3.15;1.20;;;20.20;7.30;;;;;;4985485;28;37812;-76
2022/04/16 13:05:16;;;;;;;1.92;1.40;;;20.20;7.20;;;;;;4986431;28;34505;-76
2022/04/16 13:07:44;;;;;;;1.05;1.05;;;20.20;6.70;;;;;;4969701;28;34180;-77
2022/04/16 13:10:13;;;;;;;2.83;1.23;;;20.40;6.60;;;;;;4985661;28;34416;-76
2022/04/16 13:12:39;;;;;;;2.65;1.30;;;20.50;7.00;;;;;;4954625;28;36321;-75
2022/04/16 13:15:08;;;;;;;1.20;1.10;;;20.40;6.70;;;;;;4984835;28;34173;-77
2022/04/16 13:17:34;;;;;;;1.38;1.00;;;20.50;6.30;;;;;;4936208;28;34166;-75